Terminal Aerodrome Forecast
Issued by NWS Tampa Bay Area, FL

Home | Current Version | Previous Version | Text Only | Print | Product List | Glossary On
Versions: 1 2 3 4 5 6 7 8 9 10 11 12 13 14 15 16
000
FTUS42 KTBW 031746
TAFFMY
TAF
KFMY 031746Z 0318/0418 21009KT P6SM VCSH SCT007 BKN035
     FM032200 25010KT P6SM VCTS SCT025CB BKN050 OVC100
     FM040200 25005KT P6SM FEW025 SCT100 BKN250
     FM040600 24004KT P6SM SCT025 BKN250=

USA.gov is the U.S. government's official web portal to all federal, state and local government web resources and services.